sensor_id;sensor_type;location;lat;lon;timestamp;temperature;humidity
23087;DHT22;11712;51.134;4.156;2022-08-14T00:00:47;23.30;95.60
23087;DHT22;11712;51.134;4.156;2022-08-14T00:03:42;23.00;96.00
23087;DHT22;11712;51.134;4.156;2022-08-14T00:06:08;23.00;96.30
23087;DHT22;11712;51.134;4.156;2022-08-14T00:08:34;23.00;96.60
23087;DHT22;11712;51.134;4.156;2022-08-14T00:11:00;23.00;96.30
23087;DHT22;11712;51.134;4.156;2022-08-14T00:13:26;23.00;96.70
23087;DHT22;11712;51.134;4.156;2022-08-14T00:15:56;22.90;96.20
23087;DHT22;11712;51.134;4.156;2022-08-14T00:18:23;23.00;96.10
23087;DHT22;11712;51.134;4.156;2022-08-14T00:20:51;22.90;96.30
23087;DHT22;11712;51.134;4.156;2022-08-14T00:23:17;22.90;96.60
23087;DHT22;11712;51.134;4.156;2022-08-14T00:25:49;22.90;96.30
23087;DHT22;11712;51.134;4.156;2022-08-14T00:28:15;22.90;96.50
23087;DHT22;11712;51.134;4.156;2022-08-14T00:30:41;23.00;96.50
23087;DHT22;11712;51.134;4.156;2022-08-14T00:33:07;23.00;96.40
23087;DHT22;11712;51.134;4.156;2022-08-14T00:35:33;23.00;96.50
23087;DHT22;11712;51.134;4.156;2022-08-14T00:38:00;23.00;96.70
23087;DHT22;11712;51.134;4.156;2022-08-14T00:40:26;23.00;96.80
23087;DHT22;11712;51.134;4.156;2022-08-14T00:42:52;23.00;96.90
23087;DHT22;11712;51.134;4.156;2022-08-14T00:45:18;22.90;97.00
23087;DHT22;11712;51.134;4.156;2022-08-14T00:47:45;22.90;97.20
23087;DHT22;11712;51.134;4.156;2022-08-14T00:50:16;23.00;97.20
23087;DHT22;11712;51.134;4.156;2022-08-14T00:52:43;23.00;97.30
23087;DHT22;11712;51.134;4.156;2022-08-14T00:55:11;22.90;97.30
23087;DHT22;11712;51.134;4.156;2022-08-14T00:57:38;22.90;97.50
23087;DHT22;11712;51.134;4.156;2022-08-14T01:00:13;22.80;97.60
23087;DHT22;11712;51.134;4.156;2022-08-14T01:02:43;22.60;98.00
23087;DHT22;11712;51.134;4.156;2022-08-14T01:05:11;22.70;98.10
23087;DHT22;11712;51.134;4.156;2022-08-14T01:07:50;22.60;98.30
23087;DHT22;11712;51.134;4.156;2022-08-14T01:10:16;22.60;98.40
23087;DHT22;11712;51.134;4.156;2022-08-14T01:12:42;22.60;98.60
23087;DHT22;11712;51.134;4.156;2022-08-14T01:15:08;22.50;98.80
23087;DHT22;11712;51.134;4.156;2022-08-14T01:17:34;22.50;99.10
23087;DHT22;11712;51.134;4.156;2022-08-14T01:20:19;22.40;99.50
23087;DHT22;11712;51.134;4.156;2022-08-14T01:23:05;22.30;99.70
23087;DHT22;11712;51.134;4.156;2022-08-14T01:25:33;22.30;99.90
23087;DHT22;11712;51.134;4.156;2022-08-14T01:27:59;22.30;99.90
23087;DHT22;11712;51.134;4.156;2022-08-14T01:30:26;22.30;99.90
23087;DHT22;11712;51.134;4.156;2022-08-14T01:32:52;22.30;99.90
23087;DHT22;11712;51.134;4.156;2022-08-14T01:35:18;22.30;99.90
23087;DHT22;11712;51.134;4.156;2022-08-14T01:37:45;22.20;99.90
23087;DHT22;11712;51.134;4.156;2022-08-14T01:40:13;22.10;99.90
23087;DHT22;11712;51.134;4.156;2022-08-14T01:42:41;22.10;99.90
23087;DHT22;11712;51.134;4.156;2022-08-14T01:45:07;22.00;99.90
23087;DHT22;11712;51.134;4.156;2022-08-14T01:47:37;21.90;99.90
23087;DHT22;11712;51.134;4.156;2022-08-14T01:50:04;21.90;99.90
23087;DHT22;11712;51.134;4.156;2022-08-14T01:52:35;21.80;99.90
23087;DHT22;11712;51.134;4.156;2022-08-14T01:55:06;21.80;99.90
23087;DHT22;11712;51.134;4.156;2022-08-14T01:57:43;21.80;99.90
23087;DHT22;11712;51.134;4.156;2022-08-14T02:00:09;21.70;99.90
23087;DHT22;11712;51.134;4.156;2022-08-14T02:02:41;21.70;99.90
23087;DHT22;11712;51.134;4.156;2022-08-14T02:05:11;21.60;99.90
23087;DHT22;11712;51.134;4.156;2022-08-14T02:07:36;21.50;99.90
23087;DHT22;11712;51.134;4.156;2022-08-14T02:10:05;21.50;99.90
23087;DHT22;11712;51.134;4.156;2022-08-14T02:12:31;21.50;99.90
23087;DHT22;11712;51.134;4.156;2022-08-14T02:14:57;21.40;99.90
23087;DHT22;11712;51.134;4.156;2022-08-14T02:17:26;21.50;99.90
23087;DHT22;11712;51.134;4.156;2022-08-14T02:19:53;21.40;99.90
23087;DHT22;11712;51.134;4.156;2022-08-14T02:22:18;21.40;99.90
23087;DHT22;11712;51.134;4.156;2022-08-14T02:24:44;21.40;99.90
23087;DHT22;11712;51.134;4.156;2022-08-14T02:27:10;21.40;99.90
23087;DHT22;11712;51.134;4.156;2022-08-14T02:29:36;21.30;99.90
23087;DHT22;11712;51.134;4.156;2022-08-14T02:32:02;21.40;99.90
23087;DHT22;11712;51.134;4.156;2022-08-14T02:34:35;21.40;99.90
23087;DHT22;11712;51.134;4.156;2022-08-14T02:37:05;21.30;99.90
23087;DHT22;11712;51.134;4.156;2022-08-14T02:39:33;21.30;99.90
23087;DHT22;11712;51.134;4.156;2022-08-14T02:41:59;21.10;99.90
23087;DHT22;11712;51.134;4.156;2022-08-14T02:44:25;21.00;99.90
23087;DHT22;11712;51.134;4.156;2022-08-14T02:46:52;20.90;99.90
23087;DHT22;11712;51.134;4.156;2022-08-14T02:49:20;20.90;99.90
23087;DHT22;11712;51.134;4.156;2022-08-14T02:51:51;20.90;99.90
23087;DHT22;11712;51.134;4.156;2022-08-14T02:54:16;20.90;99.90
23087;DHT22;11712;51.134;4.156;2022-08-14T02:56:42;21.00;99.90
23087;DHT22;11712;51.134;4.156;2022-08-14T02:59:08;20.90;99.90
23087;DHT22;11712;51.134;4.156;2022-08-14T03:01:36;20.80;99.90
23087;DHT22;11712;51.134;4.156;2022-08-14T03:04:02;20.90;99.90
23087;DHT22;11712;51.134;4.156;2022-08-14T03:06:30;20.80;99.90
23087;DHT22;11712;51.134;4.156;2022-08-14T03:08:56;20.80;99.90
23087;DHT22;11712;51.134;4.156;2022-08-14T03:11:24;20.80;99.90
23087;DHT22;11712;51.134;4.156;2022-08-14T03:13:50;20.80;99.90
23087;DHT22;11712;51.134;4.156;2022-08-14T03:16:19;20.60;99.90
23087;DHT22;11712;51.134;4.156;2022-08-14T03:18:47;20.60;99.90
23087;DHT22;11712;51.134;4.156;2022-08-14T03:21:16;20.50;99.90
23087;DHT22;11712;51.134;4.156;2022-08-14T03:23:44;20.40;99.90
23087;DHT22;11712;51.134;4.156;2022-08-14T03:26:12;20.50;99.90
23087;DHT22;11712;51.134;4.156;2022-08-14T03:28:41;20.50;99.90
23087;DHT22;11712;51.134;4.156;2022-08-14T03:31:08;20.50;99.90
23087;DHT22;11712;51.134;4.156;2022-08-14T03:33:35;20.50;99.90
23087;DHT22;11712;51.134;4.156;2022-08-14T03:36:07;20.60;99.90
23087;DHT22;11712;51.134;4.156;2022-08-14T03:38:34;20.50;99.90
23087;DHT22;11712;51.134;4.156;2022-08-14T03:41:11;20.50;99.90
23087;DHT22;11712;51.134;4.156;2022-08-14T03:43:51;20.50;99.90
23087;DHT22;11712;51.134;4.156;2022-08-14T03:46:17;20.40;99.90
23087;DHT22;11712;51.134;4.156;2022-08-14T03:48:44;20.30;99.90
23087;DHT22;11712;51.134;4.156;2022-08-14T03:51:11;20.20;99.90
23087;DHT22;11712;51.134;4.156;2022-08-14T03:53:43;20.10;99.90
23087;DHT22;11712;51.134;4.156;2022-08-14T03:56:12;20.20;99.90
23087;DHT22;11712;51.134;4.156;2022-08-14T03:58:41;20.10;99.90
23087;DHT22;11712;51.134;4.156;2022-08-14T04:01:10;20.30;99.90
23087;DHT22;11712;51.134;4.156;2022-08-14T04:03:36;20.20;99.90
23087;DHT22;11712;51.134;4.156;2022-08-14T04:06:02;20.20;99.90
23087;DHT22;11712;51.134;4.156;2022-08-14T04:08:27;20.10;99.90
23087;DHT22;11712;51.134;4.156;2022-08-14T04:10:53;20.00;99.90
23087;DHT22;11712;51.134;4.156;2022-08-14T04:13:20;20.00;99.90
23087;DHT22;11712;51.134;4.156;2022-08-14T04:15:47;20.00;99.90
23087;DHT22;11712;51.134;4.156;2022-08-14T04:18:13;20.00;99.90
23087;DHT22;11712;51.134;4.156;2022-08-14T04:20:39;20.00;99.90
23087;DHT22;11712;51.134;4.156;2022-08-14T04:23:07;19.80;99.90
23087;DHT22;11712;51.134;4.156;2022-08-14T04:25:33;19.80;99.90
23087;DHT22;11712;51.134;4.156;2022-08-14T04:28:04;19.80;99.90
23087;DHT22;11712;51.134;4.156;2022-08-14T04:30:32;19.80;99.90
23087;DHT22;11712;51.134;4.156;2022-08-14T04:33:06;19.90;99.90
23087;DHT22;11712;51.134;4.156;2022-08-14T04:35:34;19.60;99.90
23087;DHT22;11712;51.134;4.156;2022-08-14T04:38:04;19.60;99.90
23087;DHT22;11712;51.134;4.156;2022-08-14T04:40:49;19.70;99.90
23087;DHT22;11712;51.134;4.156;2022-08-14T04:43:33;19.70;99.90
23087;DHT22;11712;51.134;4.156;2022-08-14T04:46:14;19.70;99.90
23087;DHT22;11712;51.134;4.156;2022-08-14T04:48:40;19.80;99.90
23087;DHT22;11712;51.134;4.156;2022-08-14T04:51:09;19.60;99.90
23087;DHT22;11712;51.134;4.156;2022-08-14T04:53:36;19.50;99.90
23087;DHT22;11712;51.134;4.156;2022-08-14T04:56:06;19.70;99.90
23087;DHT22;11712;51.134;4.156;2022-08-14T04:58:33;19.80;99.90
23087;DHT22;11712;51.134;4.156;2022-08-14T05:01:01;19.90;99.90
23087;DHT22;11712;51.134;4.156;2022-08-14T05:03:31;20.00;99.90
23087;DHT22;11712;51.134;4.156;2022-08-14T05:05:59;20.10;99.90
23087;DHT22;11712;51.134;4.156;2022-08-14T05:08:26;20.20;99.90
23087;DHT22;11712;51.134;4.156;2022-08-14T05:10:53;20.20;99.90
23087;DHT22;11712;51.134;4.156;2022-08-14T05:13:21;20.30;99.90
23087;DHT22;11712;51.134;4.156;2022-08-14T05:15:48;20.40;99.90
23087;DHT22;11712;51.134;4.156;2022-08-14T05:18:19;20.40;99.90
23087;DHT22;11712;51.134;4.156;2022-08-14T05:20:48;20.40;99.90
23087;DHT22;11712;51.134;4.156;2022-08-14T05:23:16;20.60;99.90
23087;DHT22;11712;51.134;4.156;2022-08-14T05:25:43;20.60;99.90
23087;DHT22;11712;51.134;4.156;2022-08-14T05:28:10;20.60;99.90
23087;DHT22;11712;51.134;4.156;2022-08-14T05:30:36;20.70;99.90
23087;DHT22;11712;51.134;4.156;2022-08-14T05:33:03;20.80;99.90
23087;DHT22;11712;51.134;4.156;2022-08-14T05:35:29;20.90;99.90
23087;DHT22;11712;51.134;4.156;2022-08-14T05:38:05;21.00;99.90
23087;DHT22;11712;51.134;4.156;2022-08-14T05:40:32;21.10;99.90
23087;DHT22;11712;51.134;4.156;2022-08-14T05:42:59;20.90;99.90
23087;DHT22;11712;51.134;4.156;2022-08-14T05:45:25;20.90;99.90
23087;DHT22;11712;51.134;4.156;2022-08-14T05:47:51;21.00;99.90
23087;DHT22;11712;51.134;4.156;2022-08-14T05:50:17;21.00;99.90
23087;DHT22;11712;51.134;4.156;2022-08-14T05:52:42;21.10;99.90
23087;DHT22;11712;51.134;4.156;2022-08-14T05:55:09;21.40;99.90
23087;DHT22;11712;51.134;4.156;2022-08-14T05:57:56;21.40;99.90
23087;DHT22;11712;51.134;4.156;2022-08-14T06:00:26;21.50;99.90
23087;DHT22;11712;51.134;4.156;2022-08-14T06:02:52;21.80;99.90
23087;DHT22;11712;51.134;4.156;2022-08-14T06:05:18;21.90;99.90
23087;DHT22;11712;51.134;4.156;2022-08-14T06:07:44;21.90;99.90
23087;DHT22;11712;51.134;4.156;2022-08-14T06:10:10;22.00;99.90
23087;DHT22;11712;51.134;4.156;2022-08-14T06:12:37;22.00;99.90
23087;DHT22;11712;51.134;4.156;2022-08-14T06:15:03;22.10;99.90
23087;DHT22;11712;51.134;4.156;2022-08-14T06:17:30;22.30;99.90
23087;DHT22;11712;51.134;4.156;2022-08-14T06:19:55;22.30;99.90
23087;DHT22;11712;51.134;4.156;2022-08-14T06:22:21;22.50;99.90
23087;DHT22;11712;51.134;4.156;2022-08-14T06:24:47;22.60;99.90
23087;DHT22;11712;51.134;4.156;2022-08-14T06:27:12;22.70;99.90
23087;DHT22;11712;51.134;4.156;2022-08-14T06:29:38;22.80;99.90
23087;DHT22;11712;51.134;4.156;2022-08-14T06:32:04;22.90;99.90
23087;DHT22;11712;51.134;4.156;2022-08-14T06:34:30;23.00;99.90
23087;DHT22;11712;51.134;4.156;2022-08-14T06:36:57;23.10;99.90
23087;DHT22;11712;51.134;4.156;2022-08-14T06:39:23;23.10;99.90
23087;DHT22;11712;51.134;4.156;2022-08-14T06:41:49;23.10;99.90
23087;DHT22;11712;51.134;4.156;2022-08-14T06:44:14;23.10;99.90
23087;DHT22;11712;51.134;4.156;2022-08-14T06:46:40;23.20;99.90
23087;DHT22;11712;51.134;4.156;2022-08-14T06:49:06;23.40;99.90
23087;DHT22;11712;51.134;4.156;2022-08-14T06:51:32;23.40;99.90
23087;DHT22;11712;51.134;4.156;2022-08-14T06:53:57;23.50;99.90
23087;DHT22;11712;51.134;4.156;2022-08-14T06:56:23;23.60;99.90
23087;DHT22;11712;51.134;4.156;2022-08-14T06:58:49;23.80;99.90
23087;DHT22;11712;51.134;4.156;2022-08-14T07:01:15;23.90;99.90
23087;DHT22;11712;51.134;4.156;2022-08-14T07:03:59;23.90;99.90
23087;DHT22;11712;51.134;4.156;2022-08-14T07:06:43;23.80;99.90
23087;DHT22;11712;51.134;4.156;2022-08-14T07:09:09;23.90;99.90
23087;DHT22;11712;51.134;4.156;2022-08-14T07:11:36;24.00;99.90
23087;DHT22;11712;51.134;4.156;2022-08-14T07:14:01;24.20;99.90
23087;DHT22;11712;51.134;4.156;2022-08-14T07:16:27;24.40;99.90
23087;DHT22;11712;51.134;4.156;2022-08-14T07:18:53;24.50;99.90
23087;DHT22;11712;51.134;4.156;2022-08-14T07:21:18;24.70;99.90
23087;DHT22;11712;51.134;4.156;2022-08-14T07:23:44;24.90;99.90
23087;DHT22;11712;51.134;4.156;2022-08-14T07:26:10;25.10;99.90
23087;DHT22;11712;51.134;4.156;2022-08-14T07:28:39;25.20;99.90
23087;DHT22;11712;51.134;4.156;2022-08-14T07:31:07;25.40;99.90
23087;DHT22;11712;51.134;4.156;2022-08-14T07:33:43;25.50;99.90
23087;DHT22;11712;51.134;4.156;2022-08-14T07:36:12;25.60;99.90
23087;DHT22;11712;51.134;4.156;2022-08-14T07:38:38;25.80;99.90
23087;DHT22;11712;51.134;4.156;2022-08-14T07:41:08;25.70;99.90
23087;DHT22;11712;51.134;4.156;2022-08-14T07:43:35;25.90;99.90
23087;DHT22;11712;51.134;4.156;2022-08-14T07:46:02;26.00;99.90
23087;DHT22;11712;51.134;4.156;2022-08-14T07:48:27;26.10;99.90
23087;DHT22;11712;51.134;4.156;2022-08-14T07:50:53;26.20;99.90
23087;DHT22;11712;51.134;4.156;2022-08-14T07:53:19;26.40;99.90
23087;DHT22;11712;51.134;4.156;2022-08-14T07:55:46;26.40;99.90
23087;DHT22;11712;51.134;4.156;2022-08-14T07:58:12;26.50;99.90
23087;DHT22;11712;51.134;4.156;2022-08-14T08:00:39;26.60;99.90
23087;DHT22;11712;51.134;4.156;2022-08-14T08:03:06;26.70;99.90
23087;DHT22;11712;51.134;4.156;2022-08-14T08:05:37;26.80;99.90
23087;DHT22;11712;51.134;4.156;2022-08-14T08:08:04;26.90;99.90
23087;DHT22;11712;51.134;4.156;2022-08-14T08:10:30;27.00;99.90
23087;DHT22;11712;51.134;4.156;2022-08-14T08:15:27;27.30;99.90
23087;DHT22;11712;51.134;4.156;2022-08-14T08:17:53;27.30;99.90
23087;DHT22;11712;51.134;4.156;2022-08-14T08:20:22;27.30;99.90
23087;DHT22;11712;51.134;4.156;2022-08-14T08:22:52;27.30;99.90
23087;DHT22;11712;51.134;4.156;2022-08-14T08:25:27;27.40;99.90
23087;DHT22;11712;51.134;4.156;2022-08-14T08:28:02;27.40;99.90
23087;DHT22;11712;51.134;4.156;2022-08-14T08:30:30;27.50;99.90
23087;DHT22;11712;51.134;4.156;2022-08-14T08:32:58;27.60;99.90
23087;DHT22;11712;51.134;4.156;2022-08-14T08:35:28;27.70;98.90
23087;DHT22;11712;51.134;4.156;2022-08-14T08:38:03;27.80;98.80
23087;DHT22;11712;51.134;4.156;2022-08-14T08:40:35;27.90;98.90
23087;DHT22;11712;51.134;4.156;2022-08-14T08:43:04;27.90;99.90
23087;DHT22;11712;51.134;4.156;2022-08-14T08:45:35;28.00;98.90
23087;DHT22;11712;51.134;4.156;2022-08-14T08:48:02;28.10;98.30
23087;DHT22;11712;51.134;4.156;2022-08-14T08:50:33;28.20;98.30
23087;DHT22;11712;51.134;4.156;2022-08-14T08:53:04;28.10;98.70
23087;DHT22;11712;51.134;4.156;2022-08-14T08:58:05;28.30;98.60
23087;DHT22;11712;51.134;4.156;2022-08-14T09:00:33;28.40;98.40
23087;DHT22;11712;51.134;4.156;2022-08-14T09:03:08;28.60;98.70
23087;DHT22;11712;51.134;4.156;2022-08-14T09:05:37;28.80;97.80
23087;DHT22;11712;51.134;4.156;2022-08-14T09:08:23;28.70;97.50
23087;DHT22;11712;51.134;4.156;2022-08-14T09:10:50;28.80;98.10
23087;DHT22;11712;51.134;4.156;2022-08-14T09:13:16;28.80;98.40
23087;DHT22;11712;51.134;4.156;2022-08-14T09:15:45;28.90;98.30
23087;DHT22;11712;51.134;4.156;2022-08-14T09:18:12;29.00;97.40
23087;DHT22;11712;51.134;4.156;2022-08-14T09:20:41;29.00;97.90
23087;DHT22;11712;51.134;4.156;2022-08-14T09:23:12;29.10;96.60
23087;DHT22;11712;51.134;4.156;2022-08-14T09:25:39;29.20;97.00
23087;DHT22;11712;51.134;4.156;2022-08-14T09:28:07;29.40;97.30
23087;DHT22;11712;51.134;4.156;2022-08-14T09:30:37;29.70;96.70
23087;DHT22;11712;51.134;4.156;2022-08-14T09:35:52;30.10;96.00
23087;DHT22;11712;51.134;4.156;2022-08-14T09:38:37;30.10;96.40
23087;DHT22;11712;51.134;4.156;2022-08-14T09:44:15;30.20;95.80
23087;DHT22;11712;51.134;4.156;2022-08-14T09:46:54;30.40;95.70
23087;DHT22;11712;51.134;4.156;2022-08-14T09:49:34;30.40;96.50
23087;DHT22;11712;51.134;4.156;2022-08-14T09:52:13;30.30;95.10
23087;DHT22;11712;51.134;4.156;2022-08-14T09:54:42;30.50;95.00
23087;DHT22;11712;51.134;4.156;2022-08-14T09:57:09;30.50;94.30
23087;DHT22;11712;51.134;4.156;2022-08-14T09:59:44;30.50;94.60
23087;DHT22;11712;51.134;4.156;2022-08-14T10:02:36;30.40;94.40
23087;DHT22;11712;51.134;4.156;2022-08-14T10:05:05;30.40;94.00
23087;DHT22;11712;51.134;4.156;2022-08-14T10:07:34;30.40;94.60
23087;DHT22;11712;51.134;4.156;2022-08-14T10:10:00;30.40;95.10
23087;DHT22;11712;51.134;4.156;2022-08-14T10:12:46;30.50;94.10
23087;DHT22;11712;51.134;4.156;2022-08-14T10:15:17;30.40;93.70
23087;DHT22;11712;51.134;4.156;2022-08-14T10:17:44;30.70;93.70
23087;DHT22;11712;51.134;4.156;2022-08-14T10:20:11;30.80;91.00
23087;DHT22;11712;51.134;4.156;2022-08-14T10:22:38;31.10;89.50
23087;DHT22;11712;51.134;4.156;2022-08-14T10:25:12;31.20;87.80
23087;DHT22;11712;51.134;4.156;2022-08-14T10:27:42;31.30;86.70
23087;DHT22;11712;51.134;4.156;2022-08-14T10:30:16;31.40;86.40
23087;DHT22;11712;51.134;4.156;2022-08-14T10:32:46;31.70;84.60
23087;DHT22;11712;51.134;4.156;2022-08-14T10:35:13;31.90;85.00
23087;DHT22;11712;51.134;4.156;2022-08-14T10:37:46;31.90;84.50
23087;DHT22;11712;51.134;4.156;2022-08-14T10:40:15;32.10;82.70
23087;DHT22;11712;51.134;4.156;2022-08-14T10:42:42;32.20;80.00
23087;DHT22;11712;51.134;4.156;2022-08-14T10:45:22;32.20;77.60
23087;DHT22;11712;51.134;4.156;2022-08-14T10:47:49;32.20;77.30
23087;DHT22;11712;51.134;4.156;2022-08-14T10:50:16;32.10;75.40
23087;DHT22;11712;51.134;4.156;2022-08-14T10:52:42;31.90;75.30
23087;DHT22;11712;51.134;4.156;2022-08-14T10:55:10;32.10;76.40
23087;DHT22;11712;51.134;4.156;2022-08-14T10:57:49;32.20;75.80
23087;DHT22;11712;51.134;4.156;2022-08-14T11:00:23;32.30;73.20
23087;DHT22;11712;51.134;4.156;2022-08-14T11:05:24;32.20;72.30
23087;DHT22;11712;51.134;4.156;2022-08-14T11:10:24;32.20;71.50
23087;DHT22;11712;51.134;4.156;2022-08-14T11:12:54;32.20;71.80
23087;DHT22;11712;51.134;4.156;2022-08-14T11:15:26;32.20;70.20
23087;DHT22;11712;51.134;4.156;2022-08-14T11:17:53;32.30;71.30
23087;DHT22;11712;51.134;4.156;2022-08-14T11:20:21;32.20;71.20
23087;DHT22;11712;51.134;4.156;2022-08-14T11:22:51;32.30;72.00
23087;DHT22;11712;51.134;4.156;2022-08-14T11:25:17;32.50;70.10
23087;DHT22;11712;51.134;4.156;2022-08-14T11:27:45;32.40;70.70
23087;DHT22;11712;51.134;4.156;2022-08-14T11:30:14;32.50;71.20
23087;DHT22;11712;51.134;4.156;2022-08-14T11:32:43;32.50;69.50
23087;DHT22;11712;51.134;4.156;2022-08-14T11:35:14;32.40;70.90
23087;DHT22;11712;51.134;4.156;2022-08-14T11:38:00;32.50;70.20
23087;DHT22;11712;51.134;4.156;2022-08-14T11:40:29;32.70;70.50
23087;DHT22;11712;51.134;4.156;2022-08-14T11:42:56;32.80;69.20
23087;DHT22;11712;51.134;4.156;2022-08-14T11:45:27;32.60;68.40
23087;DHT22;11712;51.134;4.156;2022-08-14T11:47:54;32.60;69.00
23087;DHT22;11712;51.134;4.156;2022-08-14T11:50:23;32.60;68.70
23087;DHT22;11712;51.134;4.156;2022-08-14T11:52:50;32.40;69.10
23087;DHT22;11712;51.134;4.156;2022-08-14T11:55:24;32.30;68.90
23087;DHT22;11712;51.134;4.156;2022-08-14T11:58:08;32.10;68.40
23087;DHT22;11712;51.134;4.156;2022-08-14T12:00:44;32.00;68.80
23087;DHT22;11712;51.134;4.156;2022-08-14T12:03:10;32.20;71.10
23087;DHT22;11712;51.134;4.156;2022-08-14T12:05:38;32.40;70.00
23087;DHT22;11712;51.134;4.156;2022-08-14T12:08:05;32.60;69.50
23087;DHT22;11712;51.134;4.156;2022-08-14T12:10:35;32.60;69.00
23087;DHT22;11712;51.134;4.156;2022-08-14T12:13:13;32.70;68.90
23087;DHT22;11712;51.134;4.156;2022-08-14T12:15:40;32.70;67.90
23087;DHT22;11712;51.134;4.156;2022-08-14T12:18:06;32.80;70.00
23087;DHT22;11712;51.134;4.156;2022-08-14T12:20:37;32.90;68.90
23087;DHT22;11712;51.134;4.156;2022-08-14T12:23:07;33.00;69.50
23087;DHT22;11712;51.134;4.156;2022-08-14T12:25:43;32.70;68.80
23087;DHT22;11712;51.134;4.156;2022-08-14T12:28:10;33.00;69.90
23087;DHT22;11712;51.134;4.156;2022-08-14T12:30:39;33.10;67.20
23087;DHT22;11712;51.134;4.156;2022-08-14T12:35:51;32.60;66.50
23087;DHT22;11712;51.134;4.156;2022-08-14T12:38:29;32.40;67.40
23087;DHT22;11712;51.134;4.156;2022-08-14T12:40:55;32.30;69.30
23087;DHT22;11712;51.134;4.156;2022-08-14T12:43:20;32.40;68.30
23087;DHT22;11712;51.134;4.156;2022-08-14T12:45:51;32.50;67.40
23087;DHT22;11712;51.134;4.156;2022-08-14T12:48:20;32.60;68.20
23087;DHT22;11712;51.134;4.156;2022-08-14T12:50:46;32.80;66.50
23087;DHT22;11712;51.134;4.156;2022-08-14T12:53:11;32.80;67.30
23087;DHT22;11712;51.134;4.156;2022-08-14T12:55:39;32.90;68.70
23087;DHT22;11712;51.134;4.156;2022-08-14T12:58:06;32.90;65.80
23087;DHT22;11712;51.134;4.156;2022-08-14T13:00:34;33.00;66.80
23087;DHT22;11712;51.134;4.156;2022-08-14T13:03:02;33.10;67.30
23087;DHT22;11712;51.134;4.156;2022-08-14T13:05:31;33.30;66.70
23087;DHT22;11712;51.134;4.156;2022-08-14T13:08:01;33.40;66.70
23087;DHT22;11712;51.134;4.156;2022-08-14T13:10:33;33.90;68.20
23087;DHT22;11712;51.134;4.156;2022-08-14T13:13:00;34.20;65.50
23087;DHT22;11712;51.134;4.156;2022-08-14T13:15:28;34.50;65.80
23087;DHT22;11712;51.134;4.156;2022-08-14T13:17:55;34.30;60.70
23087;DHT22;11712;51.134;4.156;2022-08-14T13:20:23;34.40;60.30
23087;DHT22;11712;51.134;4.156;2022-08-14T13:22:51;34.30;64.70
23087;DHT22;11712;51.134;4.156;2022-08-14T13:25:21;34.40;61.40
23087;DHT22;11712;51.134;4.156;2022-08-14T13:27:51;34.30;62.00
23087;DHT22;11712;51.134;4.156;2022-08-14T13:30:18;34.40;62.20
23087;DHT22;11712;51.134;4.156;2022-08-14T13:32:45;34.50;60.40
23087;DHT22;11712;51.134;4.156;2022-08-14T13:35:13;34.70;63.20
23087;DHT22;11712;51.134;4.156;2022-08-14T13:37:41;34.80;61.00
23087;DHT22;11712;51.134;4.156;2022-08-14T13:40:09;34.70;61.40
23087;DHT22;11712;51.134;4.156;2022-08-14T13:42:35;34.90;61.70
23087;DHT22;11712;51.134;4.156;2022-08-14T13:45:03;34.80;61.30
23087;DHT22;11712;51.134;4.156;2022-08-14T13:47:30;34.80;60.80
23087;DHT22;11712;51.134;4.156;2022-08-14T13:49:59;34.90;59.60
23087;DHT22;11712;51.134;4.156;2022-08-14T13:52:30;34.70;59.70
23087;DHT22;11712;51.134;4.156;2022-08-14T13:55:02;34.40;62.00
23087;DHT22;11712;51.134;4.156;2022-08-14T13:57:31;34.20;61.60
23087;DHT22;11712;51.134;4.156;2022-08-14T14:00:04;34.20;61.70
23087;DHT22;11712;51.134;4.156;2022-08-14T14:02:44;34.40;62.60
23087;DHT22;11712;51.134;4.156;2022-08-14T14:05:13;34.50;62.00
23087;DHT22;11712;51.134;4.156;2022-08-14T14:07:45;34.60;61.00
23087;DHT22;11712;51.134;4.156;2022-08-14T14:10:11;34.80;62.60
23087;DHT22;11712;51.134;4.156;2022-08-14T14:12:38;34.70;60.00
23087;DHT22;11712;51.134;4.156;2022-08-14T14:15:07;34.90;61.60
23087;DHT22;11712;51.134;4.156;2022-08-14T14:17:34;34.80;61.40
23087;DHT22;11712;51.134;4.156;2022-08-14T14:20:00;34.90;59.50
23087;DHT22;11712;51.134;4.156;2022-08-14T14:22:26;34.70;59.90
23087;DHT22;11712;51.134;4.156;2022-08-14T14:24:52;34.80;60.30
23087;DHT22;11712;51.134;4.156;2022-08-14T14:27:18;35.00;60.10
23087;DHT22;11712;51.134;4.156;2022-08-14T14:29:48;35.00;60.40
23087;DHT22;11712;51.134;4.156;2022-08-14T14:32:16;35.40;59.60
23087;DHT22;11712;51.134;4.156;2022-08-14T14:34:43;35.60;59.50
23087;DHT22;11712;51.134;4.156;2022-08-14T14:37:12;36.70;58.50
23087;DHT22;11712;51.134;4.156;2022-08-14T14:39:40;37.50;55.80
23087;DHT22;11712;51.134;4.156;2022-08-14T14:42:07;37.60;55.40
23087;DHT22;11712;51.134;4.156;2022-08-14T14:44:37;37.90;54.40
23087;DHT22;11712;51.134;4.156;2022-08-14T14:47:10;38.20;53.80
23087;DHT22;11712;51.134;4.156;2022-08-14T14:49:36;38.20;53.90
23087;DHT22;11712;51.134;4.156;2022-08-14T14:52:05;38.40;52.30
23087;DHT22;11712;51.134;4.156;2022-08-14T14:54:33;38.60;52.30
23087;DHT22;11712;51.134;4.156;2022-08-14T14:57:01;38.00;52.20
23087;DHT22;11712;51.134;4.156;2022-08-14T14:59:28;38.40;52.80
23087;DHT22;11712;51.134;4.156;2022-08-14T15:01:59;38.30;52.70
23087;DHT22;11712;51.134;4.156;2022-08-14T15:04:26;37.70;52.60
23087;DHT22;11712;51.134;4.156;2022-08-14T15:06:52;37.70;51.80
23087;DHT22;11712;51.134;4.156;2022-08-14T15:09:18;37.20;52.80
23087;DHT22;11712;51.134;4.156;2022-08-14T15:11:44;36.30;53.20
23087;DHT22;11712;51.134;4.156;2022-08-14T15:14:11;35.70;53.40
23087;DHT22;11712;51.134;4.156;2022-08-14T15:16:36;35.50;53.80
23087;DHT22;11712;51.134;4.156;2022-08-14T15:19:03;35.30;55.50
23087;DHT22;11712;51.134;4.156;2022-08-14T15:21:30;35.20;54.60
23087;DHT22;11712;51.134;4.156;2022-08-14T15:23:55;35.00;54.90
23087;DHT22;11712;51.134;4.156;2022-08-14T15:26:23;34.90;54.30
23087;DHT22;11712;51.134;4.156;2022-08-14T15:28:49;35.00;55.00
23087;DHT22;11712;51.134;4.156;2022-08-14T15:31:16;35.00;54.60
23087;DHT22;11712;51.134;4.156;2022-08-14T15:33:42;35.30;54.40
23087;DHT22;11712;51.134;4.156;2022-08-14T15:36:26;35.20;56.00
23087;DHT22;11712;51.134;4.156;2022-08-14T15:38:54;35.30;55.50
23087;DHT22;11712;51.134;4.156;2022-08-14T15:41:20;35.10;57.70
23087;DHT22;11712;51.134;4.156;2022-08-14T15:43:46;34.80;58.20
23087;DHT22;11712;51.134;4.156;2022-08-14T15:46:12;34.60;55.90
23087;DHT22;11712;51.134;4.156;2022-08-14T15:48:38;34.40;58.40
23087;DHT22;11712;51.134;4.156;2022-08-14T15:51:04;34.00;58.10
23087;DHT22;11712;51.134;4.156;2022-08-14T15:53:30;34.00;59.30
23087;DHT22;11712;51.134;4.156;2022-08-14T15:55:56;34.00;60.70
23087;DHT22;11712;51.134;4.156;2022-08-14T15:58:22;33.80;60.00